sensor_id;sensor_type;location;lat;lon;timestamp;pressure;altitude;pressure_sealevel;temperature;humidity
55550;BME280;41397;49.972;18.944;2023-01-26T00:01:09;102661.67;;;3.17;78.90
55550;BME280;41397;49.972;18.944;2023-01-26T00:04:11;102656.21;;;3.18;78.58
55550;BME280;41397;49.972;18.944;2023-01-26T00:07:13;102648.26;;;3.10;78.38
55550;BME280;41397;49.972;18.944;2023-01-26T00:10:14;102651.10;;;3.04;78.61
55550;BME280;41397;49.972;18.944;2023-01-26T00:13:17;102652.71;;;3.13;78.56
55550;BME280;41397;49.972;18.944;2023-01-26T00:16:20;102641.02;;;3.13;78.48
55550;BME280;41397;49.972;18.944;2023-01-26T00:19:21;102641.89;;;3.13;78.86
55550;BME280;41397;49.972;18.944;2023-01-26T00:22:24;102628.36;;;3.15;78.63
55550;BME280;41397;49.972;18.944;2023-01-26T00:25:26;102641.78;;;3.19;78.99
55550;BME280;41397;49.972;18.944;2023-01-26T00:28:28;102633.83;;;3.11;78.32
55550;BME280;41397;49.972;18.944;2023-01-26T00:31:29;102625.59;;;3.18;78.82
55550;BME280;41397;49.972;18.944;2023-01-26T00:34:31;102624.57;;;3.22;78.97
55550;BME280;41397;49.972;18.944;2023-01-26T00:37:32;102619.16;;;3.22;78.65
55550;BME280;41397;49.972;18.944;2023-01-26T00:40:33;102620.10;;;3.21;78.56
55550;BME280;41397;49.972;18.944;2023-01-26T00:43:35;102612.05;;;3.19;78.56
55550;BME280;41397;49.972;18.944;2023-01-26T00:46:36;102612.88;;;3.21;78.63
55550;BME280;41397;49.972;18.944;2023-01-26T00:49:38;102610.39;;;3.12;78.80
55550;BME280;41397;49.972;18.944;2023-01-26T00:52:39;102606.80;;;3.11;78.78
55550;BME280;41397;49.972;18.944;2023-01-26T00:55:41;102605.84;;;3.14;78.80
55550;BME280;41397;49.972;18.944;2023-01-26T00:58:42;102599.50;;;3.15;79.06
55550;BME280;41397;49.972;18.944;2023-01-26T01:01:46;102603.02;;;3.19;78.92
55550;BME280;41397;49.972;18.944;2023-01-26T01:04:47;102597.68;;;3.16;78.40
55550;BME280;41397;49.972;18.944;2023-01-26T01:07:49;102598.56;;;3.16;78.57
55550;BME280;41397;49.972;18.944;2023-01-26T01:14:08;102599.50;;;3.15;78.92
55550;BME280;41397;49.972;18.944;2023-01-26T01:17:10;102594.91;;;3.19;78.81
55550;BME280;41397;49.972;18.944;2023-01-26T01:20:11;102582.31;;;3.19;78.68
55550;BME280;41397;49.972;18.944;2023-01-26T01:23:13;102586.72;;;3.22;78.77
55550;BME280;41397;49.972;18.944;2023-01-26T01:26:16;102584.22;;;3.14;78.67
55550;BME280;41397;49.972;18.944;2023-01-26T01:29:17;102581.55;;;3.13;78.79
55550;BME280;41397;49.972;18.944;2023-01-26T01:32:19;102580.80;;;3.06;78.44
55550;BME280;41397;49.972;18.944;2023-01-26T01:35:21;102576.34;;;3.03;78.51
55550;BME280;41397;49.972;18.944;2023-01-26T01:38:25;102574.44;;;3.08;78.66
55550;BME280;41397;49.972;18.944;2023-01-26T01:41:26;102570.96;;;3.02;78.36
55550;BME280;41397;49.972;18.944;2023-01-26T01:44:28;102569.27;;;2.98;78.69
55550;BME280;41397;49.972;18.944;2023-01-26T01:47:29;102575.57;;;2.97;78.72
55550;BME280;41397;49.972;18.944;2023-01-26T01:50:36;102566.86;;;2.84;78.11
55550;BME280;41397;49.972;18.944;2023-01-26T01:53:43;102565.05;;;2.83;78.57
55550;BME280;41397;49.972;18.944;2023-01-26T01:56:49;102560.44;;;2.88;78.72
55550;BME280;41397;49.972;18.944;2023-01-26T01:59:59;102567.58;;;2.92;78.51
55550;BME280;41397;49.972;18.944;2023-01-26T02:03:05;102572.13;;;2.88;78.62
55550;BME280;41397;49.972;18.944;2023-01-26T02:06:26;102572.03;;;2.95;78.60
55550;BME280;41397;49.972;18.944;2023-01-26T02:09:34;102568.41;;;2.94;78.61
55550;BME280;41397;49.972;18.944;2023-01-26T02:12:54;102565.60;;;3.00;78.90
55550;BME280;41397;49.972;18.944;2023-01-26T02:16:00;102563.94;;;2.93;78.42
55550;BME280;41397;49.972;18.944;2023-01-26T02:19:03;102558.38;;;3.01;78.65
55550;BME280;41397;49.972;18.944;2023-01-26T02:22:32;102554.80;;;3.00;78.83
55550;BME280;41397;49.972;18.944;2023-01-26T02:28:31;102546.29;;;2.75;79.01
55550;BME280;41397;49.972;18.944;2023-01-26T02:31:32;102541.76;;;2.77;78.97
55550;BME280;41397;49.972;18.944;2023-01-26T02:34:34;102546.48;;;2.68;78.70
55550;BME280;41397;49.972;18.944;2023-01-26T02:37:35;102537.52;;;2.64;78.85
55550;BME280;41397;49.972;18.944;2023-01-26T02:40:42;102539.36;;;2.63;79.51
55550;BME280;41397;49.972;18.944;2023-01-26T02:43:46;102541.91;;;2.70;79.80
55550;BME280;41397;49.972;18.944;2023-01-26T02:46:51;102527.34;;;2.78;79.46
55550;BME280;41397;49.972;18.944;2023-01-26T02:49:53;102533.74;;;2.73;79.65
55550;BME280;41397;49.972;18.944;2023-01-26T02:52:54;102527.28;;;2.81;79.56
55550;BME280;41397;49.972;18.944;2023-01-26T02:55:56;102534.61;;;2.75;79.25
55550;BME280;41397;49.972;18.944;2023-01-26T02:58:58;102529.04;;;2.82;79.22
55550;BME280;41397;49.972;18.944;2023-01-26T03:01:59;102514.60;;;2.83;79.14
55550;BME280;41397;49.972;18.944;2023-01-26T03:05:01;102519.19;;;2.80;79.15
55550;BME280;41397;49.972;18.944;2023-01-26T03:08:04;102504.95;;;2.73;79.16
55550;BME280;41397;49.972;18.944;2023-01-26T03:11:07;102502.30;;;2.70;79.37
55550;BME280;41397;49.972;18.944;2023-01-26T03:14:10;102496.18;;;2.62;79.58
55550;BME280;41397;49.972;18.944;2023-01-26T03:17:12;102500.73;;;2.58;79.61
55550;BME280;41397;49.972;18.944;2023-01-26T03:20:13;102497.09;;;2.61;79.52
55550;BME280;41397;49.972;18.944;2023-01-26T03:23:26;102498.90;;;2.60;79.21
55550;BME280;41397;49.972;18.944;2023-01-26T03:26:39;102496.19;;;2.60;79.64
55550;BME280;41397;49.972;18.944;2023-01-26T03:29:54;102490.87;;;2.57;79.72
55550;BME280;41397;49.972;18.944;2023-01-26T03:32:56;102484.59;;;2.55;80.31
55550;BME280;41397;49.972;18.944;2023-01-26T03:35:59;102485.40;;;2.60;79.81
55550;BME280;41397;49.972;18.944;2023-01-26T03:39:00;102483.63;;;2.59;79.73
55550;BME280;41397;49.972;18.944;2023-01-26T03:42:01;102482.68;;;2.62;79.79
55550;BME280;41397;49.972;18.944;2023-01-26T03:45:18;102483.55;;;2.62;79.83
55550;BME280;41397;49.972;18.944;2023-01-26T03:48:37;102477.27;;;2.62;80.08
55550;BME280;41397;49.972;18.944;2023-01-26T03:51:55;102473.85;;;2.54;80.13
55550;BME280;41397;49.972;18.944;2023-01-26T03:55:14;102475.63;;;2.53;80.48
55550;BME280;41397;49.972;18.944;2023-01-26T03:58:32;102470.53;;;2.39;80.66
55550;BME280;41397;49.972;18.944;2023-01-26T04:01:40;102462.41;;;2.39;80.98
55550;BME280;41397;49.972;18.944;2023-01-26T04:04:41;102457.80;;;2.46;81.17
55550;BME280;41397;49.972;18.944;2023-01-26T04:08:03;102458.68;;;2.47;81.33
55550;BME280;41397;49.972;18.944;2023-01-26T04:11:17;102459.79;;;2.36;81.31
55550;BME280;41397;49.972;18.944;2023-01-26T04:14:18;102450.83;;;2.34;81.67
55550;BME280;41397;49.972;18.944;2023-01-26T04:17:32;102454.59;;;2.27;81.90
55550;BME280;41397;49.972;18.944;2023-01-26T04:20:45;102449.20;;;2.27;82.05
55550;BME280;41397;49.972;18.944;2023-01-26T04:23:59;102446.78;;;2.13;81.91
55550;BME280;41397;49.972;18.944;2023-01-26T04:27:01;102437.83;;;2.10;82.28
55550;BME280;41397;49.972;18.944;2023-01-26T04:30:03;102439.70;;;2.08;82.24
55550;BME280;41397;49.972;18.944;2023-01-26T04:33:05;102436.81;;;2.15;82.57
55550;BME280;41397;49.972;18.944;2023-01-26T04:36:08;102436.81;;;2.15;82.23
55550;BME280;41397;49.972;18.944;2023-01-26T04:39:10;102434.09;;;2.17;82.70
55550;BME280;41397;49.972;18.944;2023-01-26T04:42:11;102429.43;;;2.25;82.24
55550;BME280;41397;49.972;18.944;2023-01-26T04:45:13;102436.57;;;2.29;82.57
55550;BME280;41397;49.972;18.944;2023-01-26T04:48:14;102434.62;;;2.36;82.33
55550;BME280;41397;49.972;18.944;2023-01-26T04:51:20;102440.02;;;2.36;81.72
55550;BME280;41397;49.972;18.944;2023-01-26T04:54:22;102436.59;;;2.28;82.11
55550;BME280;41397;49.972;18.944;2023-01-26T04:57:23;102431.32;;;2.21;82.40
55550;BME280;41397;49.972;18.944;2023-01-26T05:00:25;102429.17;;;1.94;82.68
55550;BME280;41397;49.972;18.944;2023-01-26T05:03:26;102434.45;;;2.00;83.35
55550;BME280;41397;49.972;18.944;2023-01-26T05:06:28;102431.47;;;2.14;83.04
55550;BME280;41397;49.972;18.944;2023-01-26T05:09:29;102435.52;;;1.91;83.28
55550;BME280;41397;49.972;18.944;2023-01-26T05:12:31;102423.59;;;2.03;83.40
55550;BME280;41397;49.972;18.944;2023-01-26T05:15:38;102419.13;;;2.02;83.01
55550;BME280;41397;49.972;18.944;2023-01-26T05:18:40;102424.56;;;1.99;82.99
55550;BME280;41397;49.972;18.944;2023-01-26T05:21:42;102417.23;;;2.06;83.32
55550;BME280;41397;49.972;18.944;2023-01-26T05:24:43;102425.21;;;2.12;83.31
55550;BME280;41397;49.972;18.944;2023-01-26T05:27:45;102411.98;;;1.99;83.51
55550;BME280;41397;49.972;18.944;2023-01-26T05:30:47;102424.46;;;2.04;83.55
55550;BME280;41397;49.972;18.944;2023-01-26T05:33:48;102416.37;;;2.05;83.57
55550;BME280;41397;49.972;18.944;2023-01-26T05:36:50;102415.43;;;2.06;83.23
55550;BME280;41397;49.972;18.944;2023-01-26T05:39:51;102405.43;;;2.11;83.17
55550;BME280;41397;49.972;18.944;2023-01-26T05:42:53;102407.09;;;2.18;82.90
55550;BME280;41397;49.972;18.944;2023-01-26T05:45:54;102407.94;;;2.20;82.87
55550;BME280;41397;49.972;18.944;2023-01-26T05:48:56;102407.09;;;2.18;82.81
55550;BME280;41397;49.972;18.944;2023-01-26T05:51:57;102410.83;;;2.11;82.82
55550;BME280;41397;49.972;18.944;2023-01-26T05:54:58;102410.17;;;2.00;82.85
55550;BME280;41397;49.972;18.944;2023-01-26T05:58:00;102407.48;;;1.98;83.13
55550;BME280;41397;49.972;18.944;2023-01-26T06:01:04;102412.80;;;2.02;83.36
55550;BME280;41397;49.972;18.944;2023-01-26T06:04:06;102415.41;;;2.08;83.25
55550;BME280;41397;49.972;18.944;2023-01-26T06:07:09;102412.87;;;2.00;83.70
55550;BME280;41397;49.972;18.944;2023-01-26T06:10:10;102411.85;;;2.06;83.71
55550;BME280;41397;49.972;18.944;2023-01-26T06:13:12;102416.31;;;2.07;83.69
55550;BME280;41397;49.972;18.944;2023-01-26T06:16:13;102410.07;;;2.05;83.89
55550;BME280;41397;49.972;18.944;2023-01-26T06:19:15;102417.45;;;1.96;84.00
55550;BME280;41397;49.972;18.944;2023-01-26T06:22:16;102406.81;;;1.87;84.19
55550;BME280;41397;49.972;18.944;2023-01-26T06:25:17;102414.28;;;1.73;84.75
55550;BME280;41397;49.972;18.944;2023-01-26T06:28:19;102413.09;;;1.88;84.81
55550;BME280;41397;49.972;18.944;2023-01-26T06:31:21;102417.52;;;1.92;84.75
55550;BME280;41397;49.972;18.944;2023-01-26T06:34:29;102416.78;;;1.84;84.50
55550;BME280;41397;49.972;18.944;2023-01-26T06:37:30;102415.30;;;1.67;84.76
55550;BME280;41397;49.972;18.944;2023-01-26T06:40:33;102410.64;;;1.75;84.80
55550;BME280;41397;49.972;18.944;2023-01-26T06:43:35;102421.45;;;1.74;84.56
55550;BME280;41397;49.972;18.944;2023-01-26T06:46:36;102410.66;;;1.74;84.51
55550;BME280;41397;49.972;18.944;2023-01-26T06:49:38;102408.84;;;1.76;84.57
55550;BME280;41397;49.972;18.944;2023-01-26T06:52:41;102416.04;;;1.75;84.66
55550;BME280;41397;49.972;18.944;2023-01-26T06:55:44;102414.37;;;1.68;84.56
55550;BME280;41397;49.972;18.944;2023-01-26T06:58:46;102412.46;;;1.75;84.42
55550;BME280;41397;49.972;18.944;2023-01-26T07:01:48;102404.51;;;1.67;84.83
55550;BME280;41397;49.972;18.944;2023-01-26T07:04:50;102397.16;;;1.75;84.57
55550;BME280;41397;49.972;18.944;2023-01-26T07:07:51;102401.56;;;1.80;84.73
55550;BME280;41397;49.972;18.944;2023-01-26T07:10:53;102393.59;;;1.73;84.50
55550;BME280;41397;49.972;18.944;2023-01-26T07:13:55;102393.40;;;1.83;84.53
55550;BME280;41397;49.972;18.944;2023-01-26T07:16:57;102390.89;;;1.73;84.54
55550;BME280;41397;49.972;18.944;2023-01-26T07:19:58;102385.38;;;1.80;84.66
55550;BME280;41397;49.972;18.944;2023-01-26T07:23:00;102383.61;;;1.78;84.69
55550;BME280;41397;49.972;18.944;2023-01-26T07:26:01;102378.15;;;1.82;84.84
55550;BME280;41397;49.972;18.944;2023-01-26T07:29:03;102374.44;;;1.87;84.50
55550;BME280;41397;49.972;18.944;2023-01-26T07:32:04;102380.89;;;1.80;84.44
55550;BME280;41397;49.972;18.944;2023-01-26T07:35:07;102374.70;;;1.75;84.55
55550;BME280;41397;49.972;18.944;2023-01-26T07:38:09;102373.76;;;1.76;84.74
55550;BME280;41397;49.972;18.944;2023-01-26T07:41:11;102380.11;;;1.73;84.89
55550;BME280;41397;49.972;18.944;2023-01-26T07:44:13;102370.25;;;1.72;84.44
55550;BME280;41397;49.972;18.944;2023-01-26T07:47:14;102382.74;;;1.76;84.66
55550;BME280;41397;49.972;18.944;2023-01-26T07:50:16;102388.88;;;1.85;84.44
55550;BME280;41397;49.972;18.944;2023-01-26T07:53:20;102382.80;;;1.75;84.71
55550;BME280;41397;49.972;18.944;2023-01-26T07:56:25;102383.52;;;1.83;84.60
55550;BME280;41397;49.972;18.944;2023-01-26T07:59:26;102378.88;;;1.91;84.21
55550;BME280;41397;49.972;18.944;2023-01-26T08:02:27;102375.25;;;1.91;84.16
55550;BME280;41397;49.972;18.944;2023-01-26T08:05:30;102372.74;;;1.83;84.03
55550;BME280;41397;49.972;18.944;2023-01-26T08:08:32;102369.85;;;1.91;84.22
55550;BME280;41397;49.972;18.944;2023-01-26T08:11:34;102373.42;;;1.93;84.21
55550;BME280;41397;49.972;18.944;2023-01-26T08:14:36;102375.30;;;1.89;84.11
55550;BME280;41397;49.972;18.944;2023-01-26T08:17:37;102372.67;;;1.86;84.18
55550;BME280;41397;49.972;18.944;2023-01-26T08:20:39;102374.44;;;1.87;84.24
55550;BME280;41397;49.972;18.944;2023-01-26T08:23:40;102369.71;;;1.98;84.46
55550;BME280;41397;49.972;18.944;2023-01-26T08:26:42;102365.20;;;1.99;83.99
55550;BME280;41397;49.972;18.944;2023-01-26T08:29:43;102363.43;;;1.98;84.06
55550;BME280;41397;49.972;18.944;2023-01-26T08:32:45;102364.38;;;1.95;83.68
55550;BME280;41397;49.972;18.944;2023-01-26T08:35:46;102361.51;;;2.05;83.95
55550;BME280;41397;49.972;18.944;2023-01-26T08:38:48;102356.04;;;2.08;83.53
55550;BME280;41397;49.972;18.944;2023-01-26T08:41:50;102353.15;;;2.15;83.88
55550;BME280;41397;49.972;18.944;2023-01-26T08:44:51;102354.16;;;2.11;83.64
55550;BME280;41397;49.972;18.944;2023-01-26T08:47:53;102361.44;;;2.08;83.70
55550;BME280;41397;49.972;18.944;2023-01-26T08:50:55;102363.99;;;2.14;84.06
55550;BME280;41397;49.972;18.944;2023-01-26T08:53:57;102357.58;;;2.19;83.69
55550;BME280;41397;49.972;18.944;2023-01-26T08:56:58;102361.96;;;2.23;83.40
55550;BME280;41397;49.972;18.944;2023-01-26T09:00:00;102372.84;;;2.20;83.21
55550;BME280;41397;49.972;18.944;2023-01-26T09:03:04;102366.48;;;2.23;83.33
55550;BME280;41397;49.972;18.944;2023-01-26T09:06:07;102373.54;;;2.30;83.08
55550;BME280;41397;49.972;18.944;2023-01-26T09:09:09;102373.47;;;2.33;83.00
55550;BME280;41397;49.972;18.944;2023-01-26T09:12:14;102381.49;;;2.36;82.89
55550;BME280;41397;49.972;18.944;2023-01-26T09:15:16;102377.26;;;2.25;82.56
55550;BME280;41397;49.972;18.944;2023-01-26T09:18:17;102385.36;;;2.25;82.91
55550;BME280;41397;49.972;18.944;2023-01-26T09:21:19;102373.67;;;2.24;82.36
55550;BME280;41397;49.972;18.944;2023-01-26T09:24:23;102378.44;;;2.11;82.62
55550;BME280;41397;49.972;18.944;2023-01-26T09:27:25;102375.60;;;2.17;82.87
55550;BME280;41397;49.972;18.944;2023-01-26T09:30:27;102370.84;;;2.30;82.58
55550;BME280;41397;49.972;18.944;2023-01-26T09:33:28;102370.62;;;2.39;82.63
55550;BME280;41397;49.972;18.944;2023-01-26T09:36:30;102364.24;;;2.43;82.62
55550;BME280;41397;49.972;18.944;2023-01-26T09:39:31;102366.17;;;2.37;82.47
55550;BME280;41397;49.972;18.944;2023-01-26T09:46:15;102344.48;;;2.41;81.96
55550;BME280;41397;49.972;18.944;2023-01-26T09:49:04;102350.77;;;2.42;82.18
55550;BME280;41397;49.972;18.944;2023-01-26T09:52:28;102332.02;;;2.36;81.95
55550;BME280;41397;49.972;18.944;2023-01-26T09:55:26;102332.04;;;2.34;82.20
55550;BME280;41397;49.972;18.944;2023-01-26T09:58:38;102330.25;;;2.35;82.51
55550;BME280;41397;49.972;18.944;2023-01-26T10:01:52;102325.18;;;2.19;82.60
55550;BME280;41397;49.972;18.944;2023-01-26T10:05:02;102329.45;;;2.30;82.40
55550;BME280;41397;49.972;18.944;2023-01-26T10:08:12;102325.16;;;2.21;82.31
55550;BME280;41397;49.972;18.944;2023-01-26T10:11:38;102326.77;;;2.28;82.38
55550;BME280;41397;49.972;18.944;2023-01-26T10:17:44;102319.24;;;2.42;82.44
55550;BME280;41397;49.972;18.944;2023-01-26T10:20:53;102314.63;;;2.48;82.30
55550;BME280;41397;49.972;18.944;2023-01-26T10:23:58;102301.73;;;2.60;81.84
55550;BME280;41397;49.972;18.944;2023-01-26T10:27:10;102308.11;;;2.56;81.92
55550;BME280;41397;49.972;18.944;2023-01-26T10:30:16;102303.49;;;2.61;81.81
55550;BME280;41397;49.972;18.944;2023-01-26T10:33:25;102299.46;;;2.79;82.38
55550;BME280;41397;49.972;18.944;2023-01-26T10:36:31;102298.06;;;2.63;81.48
55550;BME280;41397;49.972;18.944;2023-01-26T10:39:32;102289.72;;;2.72;81.29
55550;BME280;41397;49.972;18.944;2023-01-26T10:42:35;102301.38;;;2.74;81.51
55550;BME280;41397;49.972;18.944;2023-01-26T10:45:46;102290.41;;;2.80;81.32
55550;BME280;41397;49.972;18.944;2023-01-26T10:48:51;102289.35;;;2.87;81.17
55550;BME280;41397;49.972;18.944;2023-01-26T10:55:11;102282.89;;;2.93;80.58
55550;BME280;41397;49.972;18.944;2023-01-26T11:05:32;102281.84;;;2.99;79.64
55550;BME280;41397;49.972;18.944;2023-01-26T11:07:58;102282.63;;;3.02;79.91
55550;BME280;41397;49.972;18.944;2023-01-26T11:11:03;102274.70;;;2.96;79.52
55550;BME280;41397;49.972;18.944;2023-01-26T11:14:16;102279.62;;;3.15;79.91
55550;BME280;41397;49.972;18.944;2023-01-26T11:17:24;102270.72;;;3.11;79.23
55550;BME280;41397;49.972;18.944;2023-01-26T11:20:37;102266.96;;;3.17;78.96
55550;BME280;41397;49.972;18.944;2023-01-26T11:27:06;102268.84;;;3.13;78.99
55550;BME280;41397;49.972;18.944;2023-01-26T11:33:32;102258.23;;;3.38;78.48
55550;BME280;41397;49.972;18.944;2023-01-26T11:36:51;102265.30;;;3.44;78.16
55550;BME280;41397;49.972;18.944;2023-01-26T11:40:09;102256.03;;;3.52;78.34
55550;BME280;41397;49.972;18.944;2023-01-26T11:46:31;102243.08;;;3.64;77.77
55550;BME280;41397;49.972;18.944;2023-01-26T11:59:23;102213.54;;;3.56;76.11
55550;BME280;41397;49.972;18.944;2023-01-26T12:02:33;102212.18;;;3.71;76.60
55550;BME280;41397;49.972;18.944;2023-01-26T12:08:59;102201.45;;;3.68;76.63
55550;BME280;41397;49.972;18.944;2023-01-26T12:12:09;102198.32;;;3.82;76.77
55550;BME280;41397;49.972;18.944;2023-01-26T12:15:26;102191.80;;;3.89;76.82
55550;BME280;41397;49.972;18.944;2023-01-26T12:18:38;102197.21;;;3.89;76.45
55550;BME280;41397;49.972;18.944;2023-01-26T12:21:44;102198.73;;;3.97;76.83
55550;BME280;41397;49.972;18.944;2023-01-26T12:24:53;102193.22;;;4.00;76.61
55550;BME280;41397;49.972;18.944;2023-01-26T12:34:29;102195.05;;;4.00;76.37
55550;BME280;41397;49.972;18.944;2023-01-26T12:37:43;102194.13;;;4.01;76.25
55550;BME280;41397;49.972;18.944;2023-01-26T12:47:33;102181.61;;;3.97;76.01
55550;BME280;41397;49.972;18.944;2023-01-26T12:50:37;102181.61;;;3.97;75.66
55550;BME280;41397;49.972;18.944;2023-01-26T12:56:54;102171.66;;;3.97;75.15
55550;BME280;41397;49.972;18.944;2023-01-26T13:00:15;102170.65;;;4.02;75.54
55550;BME280;41397;49.972;18.944;2023-01-26T13:03:27;102166.96;;;4.04;75.76
55550;BME280;41397;49.972;18.944;2023-01-26T13:06:30;102174.27;;;4.00;75.26
55550;BME280;41397;49.972;18.944;2023-01-26T13:09:32;102176.20;;;3.97;75.76
55550;BME280;41397;49.972;18.944;2023-01-26T13:12:44;102171.84;;;3.93;75.17
55550;BME280;41397;49.972;18.944;2023-01-26T13:15:46;102168.48;;;3.85;74.98
55550;BME280;41397;49.972;18.944;2023-01-26T13:18:54;102167.23;;;3.95;75.67
55550;BME280;41397;49.972;18.944;2023-01-26T13:21:56;102172.61;;;3.96;75.31
55550;BME280;41397;49.972;18.944;2023-01-26T13:28:14;102168.18;;;3.94;75.33
55550;BME280;41397;49.972;18.944;2023-01-26T13:34:38;102169.40;;;3.84;75.12
55550;BME280;41397;49.972;18.944;2023-01-26T13:40:56;102180.46;;;3.76;78.55
55550;BME280;41397;49.972;18.944;2023-01-26T13:44:13;102163.14;;;3.82;75.47
55550;BME280;41397;49.972;18.944;2023-01-26T13:47:15;102170.48;;;3.78;75.00
55550;BME280;41397;49.972;18.944;2023-01-26T13:53:40;102153.94;;;3.87;75.91
55550;BME280;41397;49.972;18.944;2023-01-26T13:59:58;102161.08;;;3.90;75.72
55550;BME280;41397;49.972;18.944;2023-01-26T14:03:02;102173.39;;;3.72;75.63
55550;BME280;41397;49.972;18.944;2023-01-26T14:06:08;102160.30;;;3.86;76.23
55550;BME280;41397;49.972;18.944;2023-01-26T14:09:12;102158.38;;;3.90;76.17
55550;BME280;41397;49.972;18.944;2023-01-26T14:12:22;102158.72;;;3.79;75.77
55550;BME280;41397;49.972;18.944;2023-01-26T14:15:30;102161.38;;;3.81;75.88
55550;BME280;41397;49.972;18.944;2023-01-26T14:18:32;102159.65;;;3.78;75.89
55550;BME280;41397;49.972;18.944;2023-01-26T14:24:49;102167.78;;;3.78;75.97
55550;BME280;41397;49.972;18.944;2023-01-26T14:27:51;102166.15;;;3.72;75.94
55550;BME280;41397;49.972;18.944;2023-01-26T14:31:02;102170.55;;;3.76;76.30
55550;BME280;41397;49.972;18.944;2023-01-26T14:34:09;102157.15;;;3.72;76.21
55550;BME280;41397;49.972;18.944;2023-01-26T14:37:16;102166.05;;;3.75;76.27
55550;BME280;41397;49.972;18.944;2023-01-26T14:40:23;102169.38;;;3.55;76.03
55550;BME280;41397;49.972;18.944;2023-01-26T14:43:27;102158.27;;;3.35;76.16
55550;BME280;41397;49.972;18.944;2023-01-26T14:52:58;102148.73;;;3.22;76.74
55550;BME280;41397;49.972;18.944;2023-01-26T14:56:16;102151.13;;;3.32;76.60
55550;BME280;41397;49.972;18.944;2023-01-26T14:59:22;102160.72;;;3.44;76.73
55550;BME280;41397;49.972;18.944;2023-01-26T15:05:38;102166.12;;;3.44;76.52
55550;BME280;41397;49.972;18.944;2023-01-26T15:11:58;102147.36;;;3.38;76.74
55550;BME280;41397;49.972;18.944;2023-01-26T15:15:29;102159.86;;;3.42;76.74
55550;BME280;41397;49.972;18.944;2023-01-26T15:18:33;102149.37;;;3.31;76.50
55550;BME280;41397;49.972;18.944;2023-01-26T15:21:36;102161.13;;;3.30;76.69
55550;BME280;41397;49.972;18.944;2023-01-26T15:24:46;102152.10;;;3.30;76.92
55550;BME280;41397;49.972;18.944;2023-01-26T15:27:55;102150.12;;;3.37;76.78
55550;BME280;41397;49.972;18.944;2023-01-26T15:30:57;102152.92;;;3.33;76.56
55550;BME280;41397;49.972;18.944;2023-01-26T15:33:59;102153.05;;;3.29;76.69
55550;BME280;41397;49.972;18.944;2023-01-26T15:40:25;102156.91;;;3.20;77.55
55550;BME280;41397;49.972;18.944;2023-01-26T15:43:26;102153.23;;;3.23;77.61
55550;BME280;41397;49.972;18.944;2023-01-26T15:46:27;102160.80;;;3.10;78.00
55550;BME280;41397;49.972;18.944;2023-01-26T15:49:29;102153.63;;;3.09;78.62
55550;BME280;41397;49.972;18.944;2023-01-26T15:52:33;102151.60;;;3.17;78.51
55550;BME280;41397;49.972;18.944;2023-01-26T15:55:34;102150.56;;;3.21;78.61
55550;BME280;41397;49.972;18.944;2023-01-26T15:58:36;102150.34;;;3.29;78.31
55550;BME280;41397;49.972;18.944;2023-01-26T16:01:38;102153.66;;;3.39;78.30
55550;BME280;41397;49.972;18.944;2023-01-26T16:04:42;102153.83;;;3.32;78.32
55550;BME280;41397;49.972;18.944;2023-01-26T16:07:43;102148.71;;;3.23;77.95
55550;BME280;41397;49.972;18.944;2023-01-26T16:10:45;102154.78;;;3.31;78.24
55550;BME280;41397;49.972;18.944;2023-01-26T16:13:47;102155.74;;;3.29;78.52
55550;BME280;41397;49.972;18.944;2023-01-26T16:16:49;102151.19;;;3.31;78.43
55550;BME280;41397;49.972;18.944;2023-01-26T16:19:51;102151.09;;;3.34;78.50
55550;BME280;41397;49.972;18.944;2023-01-26T16:22:52;102146.79;;;3.27;78.46
55550;BME280;41397;49.972;18.944;2023-01-26T16:25:54;102148.48;;;3.31;78.86
55550;BME280;41397;49.972;18.944;2023-01-26T16:28:57;102148.62;;;3.26;78.90
55550;BME280;41397;49.972;18.944;2023-01-26T16:31:59;102144.08;;;3.27;78.71
55550;BME280;41397;49.972;18.944;2023-01-26T16:35:01;102151.13;;;3.32;78.59
55550;BME280;41397;49.972;18.944;2023-01-26T16:38:04;102144.94;;;3.29;78.53
55550;BME280;41397;49.972;18.944;2023-01-26T16:41:15;102134.21;;;3.26;78.35
55550;BME280;41397;49.972;18.944;2023-01-26T16:44:25;102135.98;;;3.27;78.75
55550;BME280;41397;49.972;18.944;2023-01-26T16:47:27;102138.77;;;3.24;78.60
55550;BME280;41397;49.972;18.944;2023-01-26T16:50:28;102141.45;;;3.25;78.52
55550;BME280;41397;49.972;18.944;2023-01-26T16:53:31;102126.95;;;3.28;78.58
55550;BME280;41397;49.972;18.944;2023-01-26T16:56:36;102128.80;;;3.26;78.43
55550;BME280;41397;49.972;18.944;2023-01-26T16:59:37;102126.13;;;3.24;78.55
55550;BME280;41397;49.972;18.944;2023-01-26T17:02:41;102128.93;;;3.21;78.64
55550;BME280;41397;49.972;18.944;2023-01-26T17:05:43;102123.69;;;3.17;78.80
55550;BME280;41397;49.972;18.944;2023-01-26T17:08:45;102127.27;;;3.17;79.08
55550;BME280;41397;49.972;18.944;2023-01-26T17:11:47;102113.75;;;3.17;79.23
55550;BME280;41397;49.972;18.944;2023-01-26T17:14:48;102123.53;;;3.21;79.14
55550;BME280;41397;49.972;18.944;2023-01-26T17:17:50;102119.95;;;3.21;79.06
55550;BME280;41397;49.972;18.944;2023-01-26T17:20:52;102126.21;;;3.23;79.43
55550;BME280;41397;49.972;18.944;2023-01-26T17:23:55;102116.37;;;3.20;79.35
55550;BME280;41397;49.972;18.944;2023-01-26T17:26:58;102132.52;;;3.22;79.20
55550;BME280;41397;49.972;18.944;2023-01-26T17:30:00;102126.08;;;3.27;79.31
55550;BME280;41397;49.972;18.944;2023-01-26T17:33:01;102129.59;;;3.29;79.01
55550;BME280;41397;49.972;18.944;2023-01-26T17:36:04;102134.81;;;3.06;79.28
55550;BME280;41397;49.972;18.944;2023-01-26T17:39:07;102136.54;;;3.08;79.60
55550;BME280;41397;49.972;18.944;2023-01-26T17:42:08;102136.29;;;3.16;79.43